sensor_id;sensor_type;location;lat;lon;timestamp;P1;durP1;ratioP1;P2;durP2;ratioP2
10751;SDS011;74458;51.060;4.228;2024-02-21T00:01:53;18.58;;;8.02;;
10751;SDS011;74458;51.060;4.228;2024-02-21T00:04:19;19.92;;;9.38;;
10751;SDS011;74458;51.060;4.228;2024-02-21T00:06:46;16.58;;;7.90;;
10751;SDS011;74458;51.060;4.228;2024-02-21T00:09:12;22.95;;;8.35;;
10751;SDS011;74458;51.060;4.228;2024-02-21T00:11:39;14.43;;;7.15;;
10751;SDS011;74458;51.060;4.228;2024-02-21T00:14:05;14.45;;;7.22;;
10751;SDS011;74458;51.060;4.228;2024-02-21T00:16:31;21.27;;;9.23;;
10751;SDS011;74458;51.060;4.228;2024-02-21T00:18:58;15.00;;;7.68;;
10751;SDS011;74458;51.060;4.228;2024-02-21T00:21:24;17.73;;;8.20;;
10751;SDS011;74458;51.060;4.228;2024-02-21T00:23:51;18.80;;;8.85;;
10751;SDS011;74458;51.060;4.228;2024-02-21T00:26:17;18.83;;;8.65;;
10751;SDS011;74458;51.060;4.228;2024-02-21T00:28:43;18.45;;;9.13;;
10751;SDS011;74458;51.060;4.228;2024-02-21T00:31:10;17.65;;;7.47;;
10751;SDS011;74458;51.060;4.228;2024-02-21T00:33:36;13.55;;;7.93;;
10751;SDS011;74458;51.060;4.228;2024-02-21T00:36:03;17.83;;;7.53;;
10751;SDS011;74458;51.060;4.228;2024-02-21T00:38:29;24.70;;;8.30;;
10751;SDS011;74458;51.060;4.228;2024-02-21T00:40:56;16.12;;;8.38;;
10751;SDS011;74458;51.060;4.228;2024-02-21T00:43:23;17.37;;;8.07;;
10751;SDS011;74458;51.060;4.228;2024-02-21T00:45:49;21.35;;;8.65;;
10751;SDS011;74458;51.060;4.228;2024-02-21T00:48:15;20.30;;;8.65;;
10751;SDS011;74458;51.060;4.228;2024-02-21T00:50:42;19.95;;;9.10;;
10751;SDS011;74458;51.060;4.228;2024-02-21T00:53:08;20.62;;;10.07;;
10751;SDS011;74458;51.060;4.228;2024-02-21T00:55:34;27.87;;;9.35;;
10751;SDS011;74458;51.060;4.228;2024-02-21T00:58:01;19.12;;;9.02;;
10751;SDS011;74458;51.060;4.228;2024-02-21T01:00:27;18.25;;;9.10;;
10751;SDS011;74458;51.060;4.228;2024-02-21T01:02:54;23.35;;;9.48;;
10751;SDS011;74458;51.060;4.228;2024-02-21T01:05:20;25.42;;;11.48;;
10751;SDS011;74458;51.060;4.228;2024-02-21T01:07:47;21.25;;;10.93;;
10751;SDS011;74458;51.060;4.228;2024-02-21T01:10:13;20.23;;;8.32;;
10751;SDS011;74458;51.060;4.228;2024-02-21T01:12:39;17.67;;;8.30;;
10751;SDS011;74458;51.060;4.228;2024-02-21T01:15:06;19.12;;;7.62;;
10751;SDS011;74458;51.060;4.228;2024-02-21T01:17:32;20.90;;;8.65;;
10751;SDS011;74458;51.060;4.228;2024-02-21T01:19:59;17.58;;;8.30;;
10751;SDS011;74458;51.060;4.228;2024-02-21T01:22:25;20.73;;;9.27;;
10751;SDS011;74458;51.060;4.228;2024-02-21T01:24:52;23.48;;;9.32;;
10751;SDS011;74458;51.060;4.228;2024-02-21T01:27:18;25.80;;;8.27;;
10751;SDS011;74458;51.060;4.228;2024-02-21T01:29:45;21.60;;;8.70;;
10751;SDS011;74458;51.060;4.228;2024-02-21T01:32:11;23.62;;;8.70;;
10751;SDS011;74458;51.060;4.228;2024-02-21T01:34:38;23.10;;;8.88;;
10751;SDS011;74458;51.060;4.228;2024-02-21T01:37:04;18.05;;;9.80;;
10751;SDS011;74458;51.060;4.228;2024-02-21T01:39:30;22.10;;;9.50;;
10751;SDS011;74458;51.060;4.228;2024-02-21T01:41:57;19.77;;;10.40;;
10751;SDS011;74458;51.060;4.228;2024-02-21T01:44:23;19.65;;;8.75;;
10751;SDS011;74458;51.060;4.228;2024-02-21T01:46:50;18.42;;;10.27;;
10751;SDS011;74458;51.060;4.228;2024-02-21T01:49:16;17.73;;;9.02;;
10751;SDS011;74458;51.060;4.228;2024-02-21T01:51:42;25.92;;;11.95;;
10751;SDS011;74458;51.060;4.228;2024-02-21T01:54:09;21.90;;;10.02;;
10751;SDS011;74458;51.060;4.228;2024-02-21T01:56:35;27.40;;;9.00;;
10751;SDS011;74458;51.060;4.228;2024-02-21T01:59:02;23.62;;;10.65;;
10751;SDS011;74458;51.060;4.228;2024-02-21T02:01:29;23.00;;;10.52;;
10751;SDS011;74458;51.060;4.228;2024-02-21T02:03:55;23.67;;;9.15;;
10751;SDS011;74458;51.060;4.228;2024-02-21T02:06:21;21.85;;;10.35;;
10751;SDS011;74458;51.060;4.228;2024-02-21T02:08:48;24.15;;;9.98;;
10751;SDS011;74458;51.060;4.228;2024-02-21T02:11:14;20.33;;;9.80;;
10751;SDS011;74458;51.060;4.228;2024-02-21T02:13:41;18.90;;;10.18;;
10751;SDS011;74458;51.060;4.228;2024-02-21T02:16:07;27.48;;;10.23;;
10751;SDS011;74458;51.060;4.228;2024-02-21T02:18:34;28.12;;;10.32;;
10751;SDS011;74458;51.060;4.228;2024-02-21T02:21:00;26.00;;;10.43;;
10751;SDS011;74458;51.060;4.228;2024-02-21T02:23:28;27.90;;;10.27;;
10751;SDS011;74458;51.060;4.228;2024-02-21T02:25:54;22.58;;;10.85;;
10751;SDS011;74458;51.060;4.228;2024-02-21T02:28:21;22.73;;;10.30;;
10751;SDS011;74458;51.060;4.228;2024-02-21T02:30:48;17.50;;;9.95;;
10751;SDS011;74458;51.060;4.228;2024-02-21T02:33:15;22.87;;;10.90;;
10751;SDS011;74458;51.060;4.228;2024-02-21T02:35:41;23.27;;;9.45;;
10751;SDS011;74458;51.060;4.228;2024-02-21T02:38:07;19.83;;;10.52;;
10751;SDS011;74458;51.060;4.228;2024-02-21T02:40:47;24.10;;;11.15;;
10751;SDS011;74458;51.060;4.228;2024-02-21T02:43:14;24.02;;;11.68;;
10751;SDS011;74458;51.060;4.228;2024-02-21T02:45:40;25.67;;;10.18;;
10751;SDS011;74458;51.060;4.228;2024-02-21T02:48:07;24.45;;;10.48;;
10751;SDS011;74458;51.060;4.228;2024-02-21T02:50:33;17.65;;;10.73;;
10751;SDS011;74458;51.060;4.228;2024-02-21T02:53:00;25.37;;;11.75;;
10751;SDS011;74458;51.060;4.228;2024-02-21T02:55:37;22.37;;;11.82;;
10751;SDS011;74458;51.060;4.228;2024-02-21T02:58:16;21.83;;;10.85;;
10751;SDS011;74458;51.060;4.228;2024-02-21T03:00:45;21.30;;;10.98;;
10751;SDS011;74458;51.060;4.228;2024-02-21T03:03:25;24.30;;;10.43;;
10751;SDS011;74458;51.060;4.228;2024-02-21T03:06:03;21.90;;;10.32;;
10751;SDS011;74458;51.060;4.228;2024-02-21T03:08:33;21.87;;;10.93;;
10751;SDS011;74458;51.060;4.228;2024-02-21T03:11:03;22.15;;;11.07;;
10751;SDS011;74458;51.060;4.228;2024-02-21T03:13:30;26.85;;;11.15;;
10751;SDS011;74458;51.060;4.228;2024-02-21T03:16:08;20.60;;;10.82;;
10751;SDS011;74458;51.060;4.228;2024-02-21T03:18:38;22.87;;;11.35;;
10751;SDS011;74458;51.060;4.228;2024-02-21T03:21:09;30.52;;;11.45;;
10751;SDS011;74458;51.060;4.228;2024-02-21T03:23:48;22.98;;;11.18;;
10751;SDS011;74458;51.060;4.228;2024-02-21T03:26:28;22.92;;;11.50;;
10751;SDS011;74458;51.060;4.228;2024-02-21T03:29:07;25.73;;;10.95;;
10751;SDS011;74458;51.060;4.228;2024-02-21T03:31:47;24.77;;;10.95;;
10751;SDS011;74458;51.060;4.228;2024-02-21T03:34:21;18.37;;;10.50;;
10751;SDS011;74458;51.060;4.228;2024-02-21T03:36:49;25.17;;;11.50;;
10751;SDS011;74458;51.060;4.228;2024-02-21T03:39:15;25.05;;;11.68;;
10751;SDS011;74458;51.060;4.228;2024-02-21T03:41:55;25.88;;;10.90;;
10751;SDS011;74458;51.060;4.228;2024-02-21T03:44:24;23.12;;;9.65;;
10751;SDS011;74458;51.060;4.228;2024-02-21T03:46:51;16.90;;;9.27;;
10751;SDS011;74458;51.060;4.228;2024-02-21T03:49:24;24.35;;;12.50;;
10751;SDS011;74458;51.060;4.228;2024-02-21T03:52:03;21.00;;;10.18;;
10751;SDS011;74458;51.060;4.228;2024-02-21T03:54:42;17.65;;;10.15;;
10751;SDS011;74458;51.060;4.228;2024-02-21T03:57:09;20.00;;;9.93;;
10751;SDS011;74458;51.060;4.228;2024-02-21T03:59:38;16.70;;;10.63;;
10751;SDS011;74458;51.060;4.228;2024-02-21T04:02:05;21.25;;;9.30;;
10751;SDS011;74458;51.060;4.228;2024-02-21T04:04:32;20.80;;;11.23;;
10751;SDS011;74458;51.060;4.228;2024-02-21T04:06:58;21.25;;;11.02;;
10751;SDS011;74458;51.060;4.228;2024-02-21T04:09:37;24.98;;;11.77;;
10751;SDS011;74458;51.060;4.228;2024-02-21T04:12:08;21.25;;;12.40;;
10751;SDS011;74458;51.060;4.228;2024-02-21T04:14:33;20.60;;;9.15;;
10751;SDS011;74458;51.060;4.228;2024-02-21T04:17:00;19.40;;;10.27;;
10751;SDS011;74458;51.060;4.228;2024-02-21T04:19:26;23.30;;;10.27;;
10751;SDS011;74458;51.060;4.228;2024-02-21T04:21:53;19.90;;;10.90;;
10751;SDS011;74458;51.060;4.228;2024-02-21T04:24:19;22.58;;;10.60;;
10751;SDS011;74458;51.060;4.228;2024-02-21T04:26:46;22.35;;;9.35;;
10751;SDS011;74458;51.060;4.228;2024-02-21T04:29:12;20.48;;;11.90;;
10751;SDS011;74458;51.060;4.228;2024-02-21T04:31:40;15.20;;;9.98;;
10751;SDS011;74458;51.060;4.228;2024-02-21T04:34:09;15.57;;;8.95;;
10751;SDS011;74458;51.060;4.228;2024-02-21T04:36:39;17.35;;;9.00;;
10751;SDS011;74458;51.060;4.228;2024-02-21T04:39:16;24.48;;;11.18;;
10751;SDS011;74458;51.060;4.228;2024-02-21T04:41:42;23.55;;;10.30;;
10751;SDS011;74458;51.060;4.228;2024-02-21T04:44:09;21.67;;;9.70;;
10751;SDS011;74458;51.060;4.228;2024-02-21T04:46:46;20.80;;;11.00;;
10751;SDS011;74458;51.060;4.228;2024-02-21T04:49:25;17.62;;;10.40;;
10751;SDS011;74458;51.060;4.228;2024-02-21T04:52:04;22.05;;;11.12;;
10751;SDS011;74458;51.060;4.228;2024-02-21T04:54:44;16.90;;;9.73;;
10751;SDS011;74458;51.060;4.228;2024-02-21T04:57:19;20.25;;;10.02;;
10751;SDS011;74458;51.060;4.228;2024-02-21T04:59:48;21.27;;;9.88;;
10751;SDS011;74458;51.060;4.228;2024-02-21T05:02:14;22.33;;;10.15;;
10751;SDS011;74458;51.060;4.228;2024-02-21T05:04:49;20.48;;;10.95;;
10751;SDS011;74458;51.060;4.228;2024-02-21T05:07:25;16.25;;;9.25;;
10751;SDS011;74458;51.060;4.228;2024-02-21T05:09:56;22.02;;;12.48;;
10751;SDS011;74458;51.060;4.228;2024-02-21T05:12:35;20.12;;;9.93;;
10751;SDS011;74458;51.060;4.228;2024-02-21T05:15:02;16.40;;;9.63;;
10751;SDS011;74458;51.060;4.228;2024-02-21T05:17:39;19.80;;;10.85;;
10751;SDS011;74458;51.060;4.228;2024-02-21T05:20:05;19.15;;;9.70;;
10751;SDS011;74458;51.060;4.228;2024-02-21T05:22:43;20.25;;;9.80;;
10751;SDS011;74458;51.060;4.228;2024-02-21T05:25:12;16.85;;;10.15;;
10751;SDS011;74458;51.060;4.228;2024-02-21T05:27:47;17.83;;;9.35;;
10751;SDS011;74458;51.060;4.228;2024-02-21T05:30:21;15.57;;;9.80;;
10751;SDS011;74458;51.060;4.228;2024-02-21T05:32:55;16.70;;;10.07;;
10751;SDS011;74458;51.060;4.228;2024-02-21T05:35:26;17.83;;;9.65;;
10751;SDS011;74458;51.060;4.228;2024-02-21T05:37:51;20.88;;;9.45;;
10751;SDS011;74458;51.060;4.228;2024-02-21T05:40:21;20.20;;;10.48;;
10751;SDS011;74458;51.060;4.228;2024-02-21T05:42:48;19.58;;;11.88;;
10751;SDS011;74458;51.060;4.228;2024-02-21T05:45:21;20.27;;;12.05;;
10751;SDS011;74458;51.060;4.228;2024-02-21T05:47:50;21.30;;;10.50;;
10751;SDS011;74458;51.060;4.228;2024-02-21T05:50:19;22.40;;;10.57;;
10751;SDS011;74458;51.060;4.228;2024-02-21T05:52:59;17.42;;;10.15;;
10751;SDS011;74458;51.060;4.228;2024-02-21T05:55:25;20.33;;;9.70;;
10751;SDS011;74458;51.060;4.228;2024-02-21T05:58:05;19.42;;;10.63;;
10751;SDS011;74458;51.060;4.228;2024-02-21T06:00:36;17.33;;;9.88;;
10751;SDS011;74458;51.060;4.228;2024-02-21T06:03:05;19.92;;;11.95;;
10751;SDS011;74458;51.060;4.228;2024-02-21T06:05:44;17.67;;;10.63;;
10751;SDS011;74458;51.060;4.228;2024-02-21T06:08:11;19.12;;;10.18;;
10751;SDS011;74458;51.060;4.228;2024-02-21T06:10:37;19.67;;;10.95;;
10751;SDS011;74458;51.060;4.228;2024-02-21T06:13:17;23.35;;;11.25;;
10751;SDS011;74458;51.060;4.228;2024-02-21T06:15:56;21.02;;;10.48;;
10751;SDS011;74458;51.060;4.228;2024-02-21T06:18:26;16.17;;;9.85;;
10751;SDS011;74458;51.060;4.228;2024-02-21T06:21:00;15.05;;;9.38;;
10751;SDS011;74458;51.060;4.228;2024-02-21T06:23:26;17.23;;;9.45;;
10751;SDS011;74458;51.060;4.228;2024-02-21T06:25:52;22.50;;;10.85;;
10751;SDS011;74458;51.060;4.228;2024-02-21T06:28:19;16.52;;;9.48;;
10751;SDS011;74458;51.060;4.228;2024-02-21T06:31:02;16.20;;;9.40;;
10751;SDS011;74458;51.060;4.228;2024-02-21T06:33:32;18.52;;;10.13;;
10751;SDS011;74458;51.060;4.228;2024-02-21T06:35:58;14.87;;;9.38;;
10751;SDS011;74458;51.060;4.228;2024-02-21T06:38:25;23.20;;;11.88;;
10751;SDS011;74458;51.060;4.228;2024-02-21T06:40:51;17.17;;;11.15;;
10751;SDS011;74458;51.060;4.228;2024-02-21T06:43:18;16.25;;;9.73;;
10751;SDS011;74458;51.060;4.228;2024-02-21T06:45:44;15.45;;;9.10;;
10751;SDS011;74458;51.060;4.228;2024-02-21T06:48:11;25.25;;;11.02;;
10751;SDS011;74458;51.060;4.228;2024-02-21T06:50:37;15.50;;;9.52;;
10751;SDS011;74458;51.060;4.228;2024-02-21T06:53:04;20.33;;;10.15;;
10751;SDS011;74458;51.060;4.228;2024-02-21T06:55:30;17.55;;;8.77;;
10751;SDS011;74458;51.060;4.228;2024-02-21T06:57:57;15.25;;;10.30;;
10751;SDS011;74458;51.060;4.228;2024-02-21T07:00:23;23.60;;;10.07;;
10751;SDS011;74458;51.060;4.228;2024-02-21T07:02:49;16.35;;;9.88;;
10751;SDS011;74458;51.060;4.228;2024-02-21T07:05:16;20.17;;;11.73;;
10751;SDS011;74458;51.060;4.228;2024-02-21T07:07:42;18.95;;;9.85;;
10751;SDS011;74458;51.060;4.228;2024-02-21T07:10:09;18.08;;;10.05;;
10751;SDS011;74458;51.060;4.228;2024-02-21T07:12:42;16.85;;;8.63;;
10751;SDS011;74458;51.060;4.228;2024-02-21T07:15:10;15.02;;;8.90;;
10751;SDS011;74458;51.060;4.228;2024-02-21T07:17:36;24.30;;;10.20;;
10751;SDS011;74458;51.060;4.228;2024-02-21T07:20:03;24.23;;;10.75;;
10751;SDS011;74458;51.060;4.228;2024-02-21T07:22:30;18.90;;;10.25;;
10751;SDS011;74458;51.060;4.228;2024-02-21T07:24:56;20.60;;;9.50;;
10751;SDS011;74458;51.060;4.228;2024-02-21T07:27:23;18.37;;;9.65;;
10751;SDS011;74458;51.060;4.228;2024-02-21T07:29:49;15.32;;;9.70;;
10751;SDS011;74458;51.060;4.228;2024-02-21T07:32:15;17.20;;;9.13;;
10751;SDS011;74458;51.060;4.228;2024-02-21T07:34:42;20.00;;;10.52;;
10751;SDS011;74458;51.060;4.228;2024-02-21T07:37:08;15.70;;;10.30;;
10751;SDS011;74458;51.060;4.228;2024-02-21T07:39:36;14.00;;;9.48;;
10751;SDS011;74458;51.060;4.228;2024-02-21T07:42:02;17.35;;;9.48;;
10751;SDS011;74458;51.060;4.228;2024-02-21T07:44:28;19.25;;;9.40;;
10751;SDS011;74458;51.060;4.228;2024-02-21T07:46:55;12.55;;;9.00;;
10751;SDS011;74458;51.060;4.228;2024-02-21T07:49:21;16.10;;;10.70;;
10751;SDS011;74458;51.060;4.228;2024-02-21T07:51:49;12.93;;;8.70;;
10751;SDS011;74458;51.060;4.228;2024-02-21T07:54:15;17.87;;;11.05;;
10751;SDS011;74458;51.060;4.228;2024-02-21T07:56:41;14.95;;;10.50;;
10751;SDS011;74458;51.060;4.228;2024-02-21T07:59:08;14.38;;;10.15;;
10751;SDS011;74458;51.060;4.228;2024-02-21T08:01:34;13.23;;;10.23;;
10751;SDS011;74458;51.060;4.228;2024-02-21T08:04:01;13.57;;;10.48;;
10751;SDS011;74458;51.060;4.228;2024-02-21T08:06:28;18.87;;;10.10;;
10751;SDS011;74458;51.060;4.228;2024-02-21T08:08:54;13.55;;;11.32;;
10751;SDS011;74458;51.060;4.228;2024-02-21T08:11:20;14.27;;;9.80;;
10751;SDS011;74458;51.060;4.228;2024-02-21T08:13:47;15.50;;;10.55;;
10751;SDS011;74458;51.060;4.228;2024-02-21T08:16:13;16.30;;;10.90;;
10751;SDS011;74458;51.060;4.228;2024-02-21T08:18:40;18.12;;;10.70;;
10751;SDS011;74458;51.060;4.228;2024-02-21T08:21:06;12.23;;;10.35;;
10751;SDS011;74458;51.060;4.228;2024-02-21T08:23:32;14.55;;;10.15;;
10751;SDS011;74458;51.060;4.228;2024-02-21T08:25:59;14.32;;;9.50;;
10751;SDS011;74458;51.060;4.228;2024-02-21T08:28:26;18.62;;;11.57;;
10751;SDS011;74458;51.060;4.228;2024-02-21T08:30:52;14.82;;;11.02;;
10751;SDS011;74458;51.060;4.228;2024-02-21T08:33:19;17.92;;;11.20;;
10751;SDS011;74458;51.060;4.228;2024-02-21T08:35:46;14.32;;;10.05;;
10751;SDS011;74458;51.060;4.228;2024-02-21T08:38:12;14.07;;;10.45;;
10751;SDS011;74458;51.060;4.228;2024-02-21T08:40:39;15.93;;;10.25;;
10751;SDS011;74458;51.060;4.228;2024-02-21T08:43:05;18.67;;;10.90;;
10751;SDS011;74458;51.060;4.228;2024-02-21T08:45:32;15.80;;;11.70;;
10751;SDS011;74458;51.060;4.228;2024-02-21T08:47:58;18.65;;;12.90;;
10751;SDS011;74458;51.060;4.228;2024-02-21T08:50:24;20.60;;;13.00;;
10751;SDS011;74458;51.060;4.228;2024-02-21T08:52:51;17.27;;;11.88;;
10751;SDS011;74458;51.060;4.228;2024-02-21T08:55:17;20.37;;;12.73;;
10751;SDS011;74458;51.060;4.228;2024-02-21T08:57:44;18.60;;;11.75;;
10751;SDS011;74458;51.060;4.228;2024-02-21T09:00:10;19.48;;;11.65;;
10751;SDS011;74458;51.060;4.228;2024-02-21T09:02:41;15.82;;;11.75;;
10751;SDS011;74458;51.060;4.228;2024-02-21T09:05:10;17.62;;;12.05;;
10751;SDS011;74458;51.060;4.228;2024-02-21T09:07:36;15.40;;;10.57;;
10751;SDS011;74458;51.060;4.228;2024-02-21T09:10:03;18.10;;;9.80;;
10751;SDS011;74458;51.060;4.228;2024-02-21T09:12:37;16.87;;;9.60;;
10751;SDS011;74458;51.060;4.228;2024-02-21T09:15:04;17.12;;;9.23;;
10751;SDS011;74458;51.060;4.228;2024-02-21T09:17:30;13.68;;;8.77;;
10751;SDS011;74458;51.060;4.228;2024-02-21T09:19:58;13.73;;;7.85;;
10751;SDS011;74458;51.060;4.228;2024-02-21T09:22:24;14.23;;;8.45;;
10751;SDS011;74458;51.060;4.228;2024-02-21T09:24:50;12.37;;;7.75;;
10751;SDS011;74458;51.060;4.228;2024-02-21T09:27:17;14.90;;;8.52;;
10751;SDS011;74458;51.060;4.228;2024-02-21T09:29:43;12.23;;;7.03;;
10751;SDS011;74458;51.060;4.228;2024-02-21T09:32:10;15.05;;;8.00;;
10751;SDS011;74458;51.060;4.228;2024-02-21T09:34:36;13.40;;;6.50;;
10751;SDS011;74458;51.060;4.228;2024-02-21T09:37:02;11.27;;;6.00;;
10751;SDS011;74458;51.060;4.228;2024-02-21T09:39:29;14.32;;;6.72;;
10751;SDS011;74458;51.060;4.228;2024-02-21T09:41:58;12.35;;;6.43;;
10751;SDS011;74458;51.060;4.228;2024-02-21T09:44:23;15.82;;;6.75;;
10751;SDS011;74458;51.060;4.228;2024-02-21T09:46:55;14.90;;;5.80;;
10751;SDS011;74458;51.060;4.228;2024-02-21T09:49:34;10.48;;;6.22;;
10751;SDS011;74458;51.060;4.228;2024-02-21T09:52:00;8.32;;;5.50;;
10751;SDS011;74458;51.060;4.228;2024-02-21T09:54:27;9.55;;;5.72;;
10751;SDS011;74458;51.060;4.228;2024-02-21T09:56:53;8.93;;;5.93;;
10751;SDS011;74458;51.060;4.228;2024-02-21T09:59:19;11.50;;;6.45;;
10751;SDS011;74458;51.060;4.228;2024-02-21T10:01:45;13.52;;;5.35;;
10751;SDS011;74458;51.060;4.228;2024-02-21T10:04:12;14.90;;;5.82;;
10751;SDS011;74458;51.060;4.228;2024-02-21T10:06:39;9.07;;;5.85;;
10751;SDS011;74458;51.060;4.228;2024-02-21T10:09:06;12.32;;;6.30;;
10751;SDS011;74458;51.060;4.228;2024-02-21T10:11:32;8.95;;;5.35;;
10751;SDS011;74458;51.060;4.228;2024-02-21T10:14:05;10.82;;;6.15;;
10751;SDS011;74458;51.060;4.228;2024-02-21T10:16:31;9.65;;;5.78;;
10751;SDS011;74458;51.060;4.228;2024-02-21T10:18:57;11.38;;;5.68;;
10751;SDS011;74458;51.060;4.228;2024-02-21T10:21:24;13.07;;;5.87;;
10751;SDS011;74458;51.060;4.228;2024-02-21T10:23:53;15.85;;;5.95;;
10751;SDS011;74458;51.060;4.228;2024-02-21T10:26:20;15.88;;;5.90;;
10751;SDS011;74458;51.060;4.228;2024-02-21T10:28:47;9.20;;;5.30;;
10751;SDS011;74458;51.060;4.228;2024-02-21T10:33:53;13.55;;;5.45;;
10751;SDS011;74458;51.060;4.228;2024-02-21T10:36:12;13.73;;;6.12;;
10751;SDS011;74458;51.060;4.228;2024-02-21T10:38:39;14.10;;;5.18;;
10751;SDS011;74458;51.060;4.228;2024-02-21T10:41:05;10.35;;;5.75;;
10751;SDS011;74458;51.060;4.228;2024-02-21T10:43:36;11.68;;;5.10;;
10751;SDS011;74458;51.060;4.228;2024-02-21T10:45:59;9.73;;;5.43;;
10751;SDS011;74458;51.060;4.228;2024-02-21T10:48:28;8.77;;;4.78;;
10751;SDS011;74458;51.060;4.228;2024-02-21T10:53:29;8.88;;;5.40;;
10751;SDS011;74458;51.060;4.228;2024-02-21T10:55:55;12.98;;;6.30;;
10751;SDS011;74458;51.060;4.228;2024-02-21T10:58:18;17.02;;;6.07;;
10751;SDS011;74458;51.060;4.228;2024-02-21T11:00:44;8.45;;;4.37;;
10751;SDS011;74458;51.060;4.228;2024-02-21T11:03:12;8.63;;;4.45;;
10751;SDS011;74458;51.060;4.228;2024-02-21T11:05:39;10.27;;;4.07;;
10751;SDS011;74458;51.060;4.228;2024-02-21T11:08:05;9.98;;;4.50;;
10751;SDS011;74458;51.060;4.228;2024-02-21T11:10:32;8.88;;;4.35;;
10751;SDS011;74458;51.060;4.228;2024-02-21T11:13:08;10.70;;;4.82;;
10751;SDS011;74458;51.060;4.228;2024-02-21T11:15:34;13.18;;;4.70;;
10751;SDS011;74458;51.060;4.228;2024-02-21T11:18:00;16.87;;;5.37;;
10751;SDS011;74458;51.060;4.228;2024-02-21T11:20:33;11.35;;;4.90;;
10751;SDS011;74458;51.060;4.228;2024-02-21T11:22:59;13.85;;;5.32;;
10751;SDS011;74458;51.060;4.228;2024-02-21T11:25:26;11.82;;;5.18;;
10751;SDS011;74458;51.060;4.228;2024-02-21T11:28:09;9.40;;;4.62;;
10751;SDS011;74458;51.060;4.228;2024-02-21T11:30:35;6.75;;;3.87;;
10751;SDS011;74458;51.060;4.228;2024-02-21T11:33:03;6.97;;;3.92;;
10751;SDS011;74458;51.060;4.228;2024-02-21T11:35:31;9.90;;;4.37;;
10751;SDS011;74458;51.060;4.228;2024-02-21T11:37:57;14.82;;;4.20;;
10751;SDS011;74458;51.060;4.228;2024-02-21T11:40:23;8.13;;;4.18;;
10751;SDS011;74458;51.060;4.228;2024-02-21T11:42:49;12.02;;;4.55;;
10751;SDS011;74458;51.060;4.228;2024-02-21T11:45:16;8.68;;;4.28;;
10751;SDS011;74458;51.060;4.228;2024-02-21T11:47:42;7.25;;;3.60;;
10751;SDS011;74458;51.060;4.228;2024-02-21T11:50:10;6.50;;;3.78;;
10751;SDS011;74458;51.060;4.228;2024-02-21T11:52:36;11.18;;;3.50;;
10751;SDS011;74458;51.060;4.228;2024-02-21T11:55:02;7.43;;;3.00;;
10751;SDS011;74458;51.060;4.228;2024-02-21T11:57:29;5.95;;;3.80;;
10751;SDS011;74458;51.060;4.228;2024-02-21T11:59:55;5.50;;;3.78;;
10751;SDS011;74458;51.060;4.228;2024-02-21T12:02:22;6.60;;;2.97;;
10751;SDS011;74458;51.060;4.228;2024-02-21T12:04:50;4.45;;;3.40;;
10751;SDS011;74458;51.060;4.228;2024-02-21T12:07:17;9.75;;;3.47;;
10751;SDS011;74458;51.060;4.228;2024-02-21T12:09:43;5.68;;;3.53;;
10751;SDS011;74458;51.060;4.228;2024-02-21T12:12:09;5.95;;;3.25;;
10751;SDS011;74458;51.060;4.228;2024-02-21T12:14:36;6.43;;;2.87;;
10751;SDS011;74458;51.060;4.228;2024-02-21T12:17:02;8.52;;;3.42;;
10751;SDS011;74458;51.060;4.228;2024-02-21T12:19:31;6.55;;;3.97;;
10751;SDS011;74458;51.060;4.228;2024-02-21T12:21:58;6.22;;;3.95;;
10751;SDS011;74458;51.060;4.228;2024-02-21T12:24:24;10.63;;;3.60;;
10751;SDS011;74458;51.060;4.228;2024-02-21T12:26:51;6.07;;;4.05;;
10751;SDS011;74458;51.060;4.228;2024-02-21T12:29:17;10.02;;;3.22;;
10751;SDS011;74458;51.060;4.228;2024-02-21T12:31:43;6.12;;;2.97;;
10751;SDS011;74458;51.060;4.228;2024-02-21T12:34:10;12.77;;;3.97;;
10751;SDS011;74458;51.060;4.228;2024-02-21T12:36:41;10.20;;;3.72;;
10751;SDS011;74458;51.060;4.228;2024-02-21T12:39:06;6.32;;;3.33;;
10751;SDS011;74458;51.060;4.228;2024-02-21T12:41:33;9.95;;;4.95;;
10751;SDS011;74458;51.060;4.228;2024-02-21T12:43:59;5.95;;;3.53;;
10751;SDS011;74458;51.060;4.228;2024-02-21T12:46:26;9.93;;;3.72;;
10751;SDS011;74458;51.060;4.228;2024-02-21T12:48:53;5.43;;;2.97;;
10751;SDS011;74458;51.060;4.228;2024-02-21T12:51:19;7.97;;;3.58;;
10751;SDS011;74458;51.060;4.228;2024-02-21T12:53:46;7.53;;;5.07;;
10751;SDS011;74458;51.060;4.228;2024-02-21T12:56:12;9.43;;;3.95;;
10751;SDS011;74458;51.060;4.228;2024-02-21T12:58:38;6.50;;;3.60;;
10751;SDS011;74458;51.060;4.228;2024-02-21T13:01:05;7.22;;;3.53;;
10751;SDS011;74458;51.060;4.228;2024-02-21T13:03:34;10.73;;;3.72;;
10751;SDS011;74458;51.060;4.228;2024-02-21T13:06:13;4.70;;;3.22;;
10751;SDS011;74458;51.060;4.228;2024-02-21T13:08:40;10.93;;;5.28;;
10751;SDS011;74458;51.060;4.228;2024-02-21T13:11:06;7.00;;;3.78;;
10751;SDS011;74458;51.060;4.228;2024-02-21T13:13:33;8.27;;;4.53;;
10751;SDS011;74458;51.060;4.228;2024-02-21T13:15:59;9.10;;;3.70;;
10751;SDS011;74458;51.060;4.228;2024-02-21T13:18:25;10.85;;;4.53;;
10751;SDS011;74458;51.060;4.228;2024-02-21T13:20:53;10.48;;;4.20;;
10751;SDS011;74458;51.060;4.228;2024-02-21T13:23:20;9.27;;;4.35;;
10751;SDS011;74458;51.060;4.228;2024-02-21T13:25:48;8.18;;;3.92;;
10751;SDS011;74458;51.060;4.228;2024-02-21T13:28:14;6.37;;;3.97;;
10751;SDS011;74458;51.060;4.228;2024-02-21T13:30:41;9.57;;;4.47;;
10751;SDS011;74458;51.060;4.228;2024-02-21T13:33:10;12.30;;;4.20;;
10751;SDS011;74458;51.060;4.228;2024-02-21T13:35:37;11.95;;;4.47;;
10751;SDS011;74458;51.060;4.228;2024-02-21T13:38:05;7.93;;;4.10;;
10751;SDS011;74458;51.060;4.228;2024-02-21T13:40:31;6.75;;;3.83;;
10751;SDS011;74458;51.060;4.228;2024-02-21T13:42:58;5.75;;;3.67;;
10751;SDS011;74458;51.060;4.228;2024-02-21T13:45:24;9.65;;;4.40;;
10751;SDS011;74458;51.060;4.228;2024-02-21T13:47:51;7.60;;;4.60;;
10751;SDS011;74458;51.060;4.228;2024-02-21T13:50:18;6.72;;;3.95;;
10751;SDS011;74458;51.060;4.228;2024-02-21T13:52:45;6.70;;;4.32;;
10751;SDS011;74458;51.060;4.228;2024-02-21T13:55:12;9.90;;;4.37;;
10751;SDS011;74458;51.060;4.228;2024-02-21T13:57:38;8.20;;;4.45;;
10751;SDS011;74458;51.060;4.228;2024-02-21T14:00:05;9.07;;;4.55;;
10751;SDS011;74458;51.060;4.228;2024-02-21T14:02:45;6.82;;;4.80;;
10751;SDS011;74458;51.060;4.228;2024-02-21T14:05:24;8.82;;;4.45;;
10751;SDS011;74458;51.060;4.228;2024-02-21T14:08:01;9.77;;;4.45;;
10751;SDS011;74458;51.060;4.228;2024-02-21T14:10:42;8.30;;;3.83;;
10751;SDS011;74458;51.060;4.228;2024-02-21T14:13:10;9.85;;;5.03;;
10751;SDS011;74458;51.060;4.228;2024-02-21T14:15:50;8.15;;;4.40;;
10751;SDS011;74458;51.060;4.228;2024-02-21T14:18:28;8.77;;;4.22;;
10751;SDS011;74458;51.060;4.228;2024-02-21T14:21:00;12.40;;;4.90;;
10751;SDS011;74458;51.060;4.228;2024-02-21T14:23:29;9.75;;;4.43;;
10751;SDS011;74458;51.060;4.228;2024-02-21T14:26:01;7.03;;;4.53;;
10751;SDS011;74458;51.060;4.228;2024-02-21T14:28:27;12.35;;;5.30;;
10751;SDS011;74458;51.060;4.228;2024-02-21T14:30:57;8.15;;;5.05;;
10751;SDS011;74458;51.060;4.228;2024-02-21T14:33:23;8.43;;;5.78;;
10751;SDS011;74458;51.060;4.228;2024-02-21T14:35:50;6.47;;;4.35;;
10751;SDS011;74458;51.060;4.228;2024-02-21T14:38:16;8.55;;;4.82;;
10751;SDS011;74458;51.060;4.228;2024-02-21T14:40:43;7.72;;;5.65;;
10751;SDS011;74458;51.060;4.228;2024-02-21T14:43:09;10.60;;;5.80;;
10751;SDS011;74458;51.060;4.228;2024-02-21T14:45:35;12.98;;;6.12;;